Time;durP1;ratioP1;P1;durP2;ratioP2;P2;SDS_P1;SDS_P2;PMS_P1;PMS_P2;Temp;Humidity;BMP_temperature;BMP_pressure;BME280_temperature;BME280_humidity;BME280_pressure;Samples;Min_cycle;Max_cycle;Signal;HPM_P1;HPM_P2
2020/12/25 00:01:26;;;;;;;14.55;6.92;;;;;;;-10.31;92.50;100871.59;1720111;82;21347;-57
2020/12/25 00:03:57;;;;;;;17.50;7.00;;;;;;;-10.30;93.00;100872.45;1702351;83;21173;-57
2020/12/25 00:06:37;;;;;;;16.27;6.00;;;;;;;-10.31;93.13;100858.98;1702936;83;20956;-56
2020/12/25 00:09:05;;;;;;;16.62;6.87;;;;;;;-10.32;93.77;100859.03;1739166;82;21213;-50
2020/12/25 00:11:35;;;;;;;15.85;7.25;;;;;;;-10.31;94.31;100858.98;1690204;83;21161;-49
2020/12/25 00:14:03;;;;;;;15.43;6.53;;;;;;;-10.29;95.06;100852.66;1694759;83;21209;-49
2020/12/25 00:16:32;;;;;;;14.45;6.87;;;;;;;-10.25;95.77;100848.38;1696672;83;20999;-56
2020/12/25 00:19:00;;;;;;;15.30;6.08;;;;;;;-10.23;95.99;100840.30;1720874;82;21294;-58
2020/12/25 00:21:28;;;;;;;16.05;7.03;;;;;;;-10.24;96.16;100832.36;1715316;82;21169;-49
2020/12/25 00:23:56;;;;;;;16.52;7.22;;;;;;;-10.25;96.50;100837.86;1719989;82;21006;-47
2020/12/25 00:26:29;;;;;;;15.65;6.60;;;;;;;-10.27;96.76;100831.20;1691838;83;21219;-59
2020/12/25 00:28:58;;;;;;;17.73;8.00;;;;;;;-10.27;97.21;100832.02;1696487;84;20970;-58
2020/12/25 00:31:31;;;;;;;17.52;7.50;;;;;;;-10.29;97.23;100826.20;1683669;83;21010;-49
2020/12/25 00:34:04;;;;;;;15.28;7.87;;;;;;;-10.30;97.33;100823.30;1697467;83;21203;-49
2020/12/25 00:36:34;;;;;;;16.25;7.78;;;;;;;-10.31;97.58;100821.61;1681724;83;21143;-58
2020/12/25 00:39:06;;;;;;;15.75;6.22;;;;;;;-10.34;97.63;100816.23;1727799;82;21442;-50
2020/12/25 00:41:34;;;;;;;12.98;6.20;;;;;;;-10.37;97.88;100803.70;1744167;82;21126;-49
2020/12/25 00:44:02;;;;;;;15.38;6.17;;;;;;;-10.39;98.16;100790.73;1735719;82;21162;-58
2020/12/25 00:46:32;;;;;;;13.18;6.65;;;;;;;-10.40;98.58;100788.66;1723281;82;21078;-49
2020/12/25 00:49:00;;;;;;;12.28;5.70;;;;;;;-10.40;98.84;100780.27;1733200;82;21074;-49
2020/12/25 00:51:30;;;;;;;16.05;8.18;;;;;;;-10.41;98.80;100776.10;1745028;82;21219;-58
2020/12/25 00:53:58;;;;;;;14.10;6.67;;;;;;;-10.45;98.66;100772.83;1689953;83;21120;-58
2020/12/25 00:56:29;;;;;;;17.60;7.17;;;;;;;-10.49;98.72;100776.70;1706033;82;20961;-58
2020/12/25 00:58:57;;;;;;;15.00;6.80;;;;;;;-10.51;99.50;100769.19;1727680;82;21066;-50
2020/12/25 01:01:27;;;;;;;15.65;6.78;;;;;;;-10.53;99.91;100765.86;1709736;83;21121;-48
2020/12/25 01:03:57;;;;;;;16.42;7.03;;;;;;;-10.56;100.00;100757.97;1733680;82;21212;-57
2020/12/25 01:06:25;;;;;;;18.10;7.62;;;;;;;-10.57;100.00;100763.02;1715374;82;21197;-48
2020/12/25 01:08:53;;;;;;;15.38;7.35;;;;;;;-10.59;100.00;100758.47;1727037;82;21074;-48
2020/12/25 01:11:26;;;;;;;14.80;7.80;;;;;;;-10.60;100.00;100754.30;1711228;82;20969;-48
2020/12/25 01:13:55;;;;;;;12.20;6.22;;;;;;;-10.61;100.00;100742.11;1716434;82;21173;-47
2020/12/25 01:16:23;;;;;;;16.20;7.53;;;;;;;-10.62;100.00;100744.25;1681320;84;21165;-57
2020/12/25 01:18:51;;;;;;;16.73;6.22;;;;;;;-10.60;100.00;100739.19;1685193;83;21205;-48
2020/12/25 01:21:19;;;;;;;21.85;7.55;;;;;;;-10.59;100.00;100734.54;1716043;82;21054;-48
2020/12/25 01:23:48;;;;;;;15.13;6.40;;;;;;;-10.56;100.00;100739.51;1714128;82;21006;-48
2020/12/25 01:26:16;;;;;;;13.22;5.62;;;;;;;-10.54;100.00;100733.98;1668562;83;21051;-48
2020/12/25 01:28:44;;;;;;;16.27;6.90;;;;;;;-10.51;100.00;100729.31;1684584;83;21210;-56
2020/12/25 01:31:12;;;;;;;15.15;6.60;;;;;;;-10.49;100.00;100736.38;1690987;84;21007;-57
2020/12/25 01:33:40;;;;;;;19.42;7.90;;;;;;;-10.49;100.00;100726.30;1709375;82;21056;-49
2020/12/25 01:36:08;;;;;;;12.18;5.42;;;;;;;-10.48;100.00;100731.77;1725470;82;21600;-57
2020/12/25 01:38:36;;;;;;;14.13;6.70;;;;;;;-10.48;100.00;100724.20;1711966;82;21144;-48
2020/12/25 01:41:05;;;;;;;16.30;6.72;;;;;;;-10.46;100.00;100719.94;1743622;82;21209;-57
2020/12/25 01:43:33;;;;;;;17.37;7.78;;;;;;;-10.46;100.00;100719.50;1739780;82;21070;-47
2020/12/25 01:46:01;;;;;;;13.80;6.37;;;;;;;-10.46;100.00;100713.20;1724532;82;21114;-57
2020/12/25 01:48:29;;;;;;;17.60;7.45;;;;;;;-10.45;100.00;100717.39;1735592;82;20927;-47
2020/12/25 01:50:57;;;;;;;14.33;6.37;;;;;;;-10.44;100.00;100713.18;1682985;83;21136;-56
2020/12/25 01:53:25;;;;;;;12.40;5.95;;;;;;;-10.43;100.00;100708.53;1681321;84;21211;-47
2020/12/25 01:55:54;;;;;;;14.73;6.37;;;;;;;-10.41;100.00;100703.03;1686787;83;21066;-57
2020/12/25 01:58:22;;;;;;;13.25;6.67;;;;;;;-10.37;100.00;100712.98;1697223;84;21207;-48
2020/12/25 02:00:51;;;;;;;15.53;6.45;;;;;;;-10.35;100.00;100703.67;1722012;82;21015;-48
2020/12/25 02:03:19;;;;;;;16.07;7.15;;;;;;;-10.33;100.00;100701.13;1690506;83;21336;-57
2020/12/25 02:05:47;;;;;;;14.15;7.05;;;;;;;-10.31;100.00;100706.94;1720836;82;21204;-57
2020/12/25 02:08:16;;;;;;;14.07;6.70;;;;;;;-10.31;100.00;100688.86;1729854;82;21198;-57
2020/12/25 02:10:44;;;;;;;17.15;6.75;;;;;;;-10.30;100.00;100683.42;1715659;82;21134;-48
2020/12/25 02:13:12;;;;;;;16.23;7.97;;;;;;;-10.31;100.00;100699.38;1735016;82;21225;-48
2020/12/25 02:15:41;;;;;;;14.78;6.85;;;;;;;-10.33;100.00;100697.35;1739399;82;21152;-57
2020/12/25 02:18:09;;;;;;;17.02;8.00;;;;;;;-10.36;100.00;100688.17;1716772;82;21203;-48
2020/12/25 02:20:38;;;;;;;14.15;7.42;;;;;;;-10.39;100.00;100675.64;1712757;82;21169;-57
2020/12/25 02:23:06;;;;;;;9.55;5.08;;;;;;;-10.43;100.00;100675.33;1726757;82;21177;-57
2020/12/25 02:25:36;;;;;;;19.48;9.18;;;;;;;-10.46;100.00;100686.74;1710622;82;21078;-48
2020/12/25 02:28:04;;;;;;;17.95;8.23;;;;;;;-10.49;100.00;100680.95;1729378;82;21062;-57
2020/12/25 02:30:32;;;;;;;15.68;7.25;;;;;;;-10.52;100.00;100684.84;1715535;82;21202;-48
2020/12/25 02:33:00;;;;;;;23.35;8.73;;;;;;;-10.55;100.00;100687.81;1724630;82;21141;-48
2020/12/25 02:35:28;;;;;;;12.88;6.87;;;;;;;-10.56;100.00;100685.34;1683064;84;21196;-48
2020/12/25 02:37:57;;;;;;;12.82;6.70;;;;;;;-10.59;100.00;100688.77;1667243;83;21202;-57
2020/12/25 02:40:26;;;;;;;14.68;6.53;;;;;;;-10.61;100.00;100689.22;1633529;85;21203;-48
2020/12/25 02:42:54;;;;;;;16.27;7.87;;;;;;;-10.61;100.00;100686.70;1732215;82;21323;-48
2020/12/25 02:45:22;;;;;;;19.00;8.00;;;;;;;-10.60;100.00;100685.03;1712179;82;22613;-48
2020/12/25 02:47:50;;;;;;;16.15;7.78;;;;;;;-10.58;100.00;100671.51;1727537;82;21023;-57
2020/12/25 02:50:18;;;;;;;17.87;8.28;;;;;;;-10.55;100.00;100680.26;1688812;84;21078;-57
2020/12/25 02:52:46;;;;;;;15.10;6.42;;;;;;;-10.52;100.00;100659.64;1683343;83;21079;-48
2020/12/25 02:55:15;;;;;;;15.90;7.05;;;;;;;-10.51;100.00;100658.77;1706772;82;21228;-56
2020/12/25 02:57:43;;;;;;;17.82;7.83;;;;;;;-10.50;100.00;100662.94;1724206;82;21185;-48
2020/12/25 03:00:12;;;;;;;18.85;9.00;;;;;;;-10.47;100.00;100656.56;1719272;82;20986;-56
2020/12/25 03:02:40;;;;;;;17.15;7.90;;;;;;;-10.45;100.00;100654.84;1726226;82;21187;-57
2020/12/25 03:05:08;;;;;;;16.07;7.10;;;;;;;-10.43;100.00;100661.47;1716144;82;21131;-47
2020/12/25 03:07:36;;;;;;;14.80;7.45;;;;;;;-10.41;100.00;100653.89;1697596;83;21241;-48
2020/12/25 03:10:05;;;;;;;14.85;6.28;;;;;;;-10.39;100.00;100657.18;1688908;83;21626;-47
2020/12/25 03:12:33;;;;;;;14.93;7.85;;;;;;;-10.39;100.00;100657.18;1688639;83;21071;-57
2020/12/25 03:15:02;;;;;;;14.10;7.37;;;;;;;-10.39;100.00;100655.92;1703196;83;21175;-57
2020/12/25 03:17:30;;;;;;;20.20;8.48;;;;;;;-10.40;100.00;100653.02;1689000;83;21149;-57
2020/12/25 03:19:58;;;;;;;19.65;7.83;;;;;;;-10.39;100.00;100661.78;1690560;84;21296;-57
2020/12/25 03:22:27;;;;;;;21.17;9.30;;;;;;;-10.37;100.00;100673.10;1726492;82;21192;-48
2020/12/25 03:24:55;;;;;;;20.48;10.23;;;;;;;-10.37;100.00;100659.24;1717018;80;21083;-48
2020/12/25 03:27:23;;;;;;;22.22;11.48;;;;;;;-10.36;100.00;100657.92;1683871;83;21078;-49
2020/12/25 03:29:51;;;;;;;16.52;8.23;;;;;;;-10.36;100.00;100659.19;1727064;82;21140;-58
2020/12/25 03:32:19;;;;;;;19.20;8.80;;;;;;;-10.36;100.00;100655.84;1704285;82;21217;-58
2020/12/25 03:34:47;;;;;;;17.52;8.95;;;;;;;-10.37;100.00;100660.06;1716328;82;20977;-58
2020/12/25 03:37:16;;;;;;;16.67;7.97;;;;;;;-10.36;100.00;100660.45;1706110;82;21189;-58
2020/12/25 03:39:44;;;;;;;14.93;7.10;;;;;;;-10.34;100.00;100657.87;1714232;82;21019;-57
2020/12/25 03:42:12;;;;;;;15.65;6.83;;;;;;;-10.33;100.00;100651.55;1677141;83;21165;-58
2020/12/25 03:44:40;;;;;;;13.00;6.47;;;;;;;-10.31;100.00;100642.67;1737269;82;21301;-49
2020/12/25 03:47:08;;;;;;;19.10;7.47;;;;;;;-10.31;100.00;100645.20;1685949;83;21163;-47
2020/12/25 03:49:36;;;;;;;18.70;8.45;;;;;;;-10.31;100.00;100645.20;1683193;83;21038;-56
2020/12/25 03:52:05;;;;;;;18.15;7.97;;;;;;;-10.30;100.00;100646.87;1681293;84;21205;-47
2020/12/25 03:54:33;;;;;;;15.68;7.62;;;;;;;-10.30;100.00;100656.52;1683645;84;21097;-53
2020/12/25 03:57:01;;;;;;;16.05;7.83;;;;;;;-10.28;100.00;100653.13;1706576;83;21229;-48
2020/12/25 03:59:29;;;;;;;15.78;7.97;;;;;;;-10.25;100.00;100654.30;1698330;83;21102;-50
2020/12/25 04:01:57;;;;;;;13.88;7.20;;;;;;;-10.24;100.00;100639.53;1730525;82;21165;-56
2020/12/25 04:04:26;;;;;;;17.50;7.58;;;;;;;-10.23;100.00;100635.70;1694580;83;21106;-56
2020/12/25 04:06:54;;;;;;;16.57;7.33;;;;;;;-10.22;100.00;100632.77;1709902;82;21207;-56
2020/12/25 04:09:22;;;;;;;15.43;8.13;;;;;;;-10.20;100.00;100636.87;1716676;82;21216;-48
2020/12/25 04:11:50;;;;;;;18.98;8.53;;;;;;;-10.17;100.00;100629.23;1710404;82;21129;-47
2020/12/25 04:14:18;;;;;;;20.50;10.08;;;;;;;-10.14;100.00;100634.64;1719077;82;21066;-48
2020/12/25 04:16:47;;;;;;;17.48;8.63;;;;;;;-10.13;100.00;100627.46;1725290;82;21168;-47
2020/12/25 04:19:15;;;;;;;14.93;8.43;;;;;;;-10.12;100.00;100619.02;1694228;83;21175;-48
2020/12/25 04:21:43;;;;;;;13.75;7.62;;;;;;;-10.11;100.00;100616.47;1692600;83;21385;-57
2020/12/25 04:24:12;;;;;;;14.83;7.30;;;;;;;-10.06;100.00;100618.86;1731874;82;21102;-48
2020/12/25 04:26:45;;;;;;;16.93;8.03;;;;;;;-10.04;100.00;100618.36;1686893;83;21150;-58
2020/12/25 04:29:13;;;;;;;16.12;7.15;;;;;;;-10.01;100.00;100614.94;1702556;82;21221;-49
2020/12/25 04:31:41;;;;;;;16.07;8.48;;;;;;;-9.99;100.00;100603.13;1718484;82;21092;-58
2020/12/25 04:34:09;;;;;;;14.43;6.35;;;;;;;-9.96;100.00;100596.70;1713775;82;21214;-58
2020/12/25 04:36:38;;;;;;;16.93;8.58;;;;;;;-9.94;100.00;100596.25;1725961;82;21157;-50
2020/12/25 04:39:06;;;;;;;16.97;8.30;;;;;;;-9.92;100.00;100599.56;1710417;82;21151;-49
2020/12/25 04:41:35;;;;;;;15.78;7.37;;;;;;;-9.90;100.00;100596.10;1719304;82;21192;-49
2020/12/25 04:44:04;;;;;;;18.30;8.83;;;;;;;-9.87;100.00;100588.89;1711901;82;21186;-57
2020/12/25 04:46:32;;;;;;;19.70;9.50;;;;;;;-9.86;100.00;100585.05;1718931;82;21379;-49
2020/12/25 04:49:01;;;;;;;15.23;9.25;;;;;;;-9.84;100.00;100579.55;1676571;83;21209;-49
2020/12/25 04:51:29;;;;;;;17.95;8.70;;;;;;;-9.80;100.00;100574.80;1737540;82;21102;-57
2020/12/25 04:53:57;;;;;;;20.27;9.30;;;;;;;-9.74;100.00;100569.98;1716901;82;21137;-49
2020/12/25 04:56:25;;;;;;;15.85;9.48;;;;;;;-9.68;100.00;100572.33;1722658;82;21161;-49
2020/12/25 04:58:54;;;;;;;17.02;8.25;;;;;;;-9.63;100.00;100574.27;1675269;85;21226;-58
2020/12/25 05:01:22;;;;;;;16.35;8.80;;;;;;;-9.57;100.00;100567.78;1729496;82;21086;-48
2020/12/25 05:03:50;;;;;;;20.85;9.28;;;;;;;-9.50;100.00;100562.11;1701398;83;21118;-57
2020/12/25 05:06:19;;;;;;;19.65;8.80;;;;;;;-9.45;100.00;100555.65;1691778;83;21163;-49
2020/12/25 05:08:51;;;;;;;16.10;8.90;;;;;;;-9.40;100.00;100558.40;1681364;84;21080;-49
2020/12/25 05:11:20;;;;;;;15.95;7.50;;;;;;;-9.34;100.00;100549.37;1687667;84;21376;-49
2020/12/25 05:13:52;;;;;;;16.32;8.95;;;;;;;-9.25;100.00;100556.26;1705857;82;20985;-49
2020/12/25 05:16:22;;;;;;;19.15;9.48;;;;;;;-9.20;100.00;100538.84;1708393;82;21173;-49
2020/12/25 05:18:51;;;;;;;16.62;8.23;;;;;;;-9.13;100.00;100532.72;1743292;80;21066;-49
2020/12/25 05:21:21;;;;;;;15.58;8.15;;;;;;;-9.06;100.00;100527.00;1742333;82;21169;-57
2020/12/25 05:23:50;;;;;;;17.82;9.20;;;;;;;-8.98;100.00;100522.50;1726977;82;21380;-49
2020/12/25 05:26:18;;;;;;;13.53;7.00;;;;;;;-8.91;100.00;100523.12;1736607;80;21189;-58
2020/12/25 05:28:48;;;;;;;17.82;8.83;;;;;;;-8.85;100.00;100520.40;1732127;82;21044;-57
2020/12/25 05:31:17;;;;;;;16.87;8.68;;;;;;;-8.78;100.00;100520.58;1682986;84;21066;-58
2020/12/25 05:33:50;;;;;;;18.07;8.53;;;;;;;-8.71;100.00;100511.91;1712197;82;21151;-49
2020/12/25 05:36:19;;;;;;;17.50;8.28;;;;;;;-8.64;100.00;100508.25;1713791;82;21212;-57
2020/12/25 05:38:49;;;;;;;19.73;9.45;;;;;;;-8.55;100.00;100503.77;1686126;84;21193;-48
2020/12/25 05:41:17;;;;;;;17.77;9.70;;;;;;;-8.44;100.00;100498.70;1676463;84;21252;-57
2020/12/25 05:43:47;;;;;;;16.52;8.83;;;;;;;-8.32;100.00;100489.36;1703775;82;21025;-49
2020/12/25 05:46:16;;;;;;;16.95;8.90;;;;;;;-8.22;100.00;100488.59;1728410;82;21223;-49
2020/12/25 05:48:50;;;;;;;16.55;8.78;;;;;;;-8.15;100.00;100486.62;1684211;82;21143;-58
2020/12/25 05:51:21;;;;;;;15.95;8.23;;;;;;;-8.07;100.00;100488.42;1699878;84;21142;-49
2020/12/25 05:53:51;;;;;;;21.37;10.40;;;;;;;-7.96;100.00;100498.94;1722888;82;20998;-58
2020/12/25 05:56:19;;;;;;;22.77;9.93;;;;;;;-7.87;100.00;100493.98;1693257;82;21486;-57
2020/12/25 05:58:48;;;;;;;17.20;8.18;;;;;;;-7.81;100.00;100496.70;1720464;82;21127;-48
2020/12/25 06:01:16;;;;;;;14.85;7.65;;;;;;;-7.81;100.00;100495.00;1737972;81;21215;-57
2020/12/25 06:03:44;;;;;;;15.88;8.83;;;;;;;-7.79;100.00;100498.30;1727044;82;21165;-57
2020/12/25 06:06:14;;;;;;;21.20;10.98;;;;;;;-7.76;100.00;100493.12;1685559;82;21148;-58
2020/12/25 06:08:59;;;;;;;16.32;9.40;;;;;;;-7.73;100.00;100492.16;1685186;84;21063;-58
2020/12/25 06:11:30;;;;;;;22.60;11.43;;;;;;;-7.71;100.00;100496.73;1682168;84;21199;-48
2020/12/25 06:13:59;;;;;;;22.15;10.78;;;;;;;-7.66;100.00;100493.12;1691046;84;21176;-48
2020/12/25 06:16:29;;;;;;;17.25;9.53;;;;;;;-7.61;100.00;100500.11;1707469;82;21191;-58
2020/12/25 06:19:39;;;;;;;17.52;9.35;;;;;;;-7.53;100.00;100501.52;1709170;82;21089;-49
2020/12/25 06:22:16;;;;;;;22.10;10.98;;;;;;;-7.50;100.00;100503.89;1681429;84;21207;-48
2020/12/25 06:24:44;;;;;;;23.57;11.80;;;;;;;-7.43;100.00;100502.77;1695631;83;21221;-48
2020/12/25 06:27:13;;;;;;;23.25;10.18;;;;;;;-7.43;100.00;100506.11;1682248;83;21255;-57
2020/12/25 06:29:44;;;;;;;19.60;10.28;;;;;;;-7.43;100.00;100502.31;1680259;83;21058;-49
2020/12/25 06:32:12;;;;;;;21.15;10.65;;;;;;;-7.44;100.00;100503.66;1698823;83;21135;-47
2020/12/25 06:34:45;;;;;;;19.62;9.58;;;;;;;-7.44;100.00;100499.86;1719807;82;21208;-47
2020/12/25 06:37:14;;;;;;;19.30;10.88;;;;;;;-7.42;100.00;100503.16;1722425;82;21159;-49
2020/12/25 06:39:56;;;;;;;18.20;9.20;;;;;;;-7.40;100.00;100503.46;1690318;83;22058;-56
2020/12/25 06:42:37;;;;;;;26.93;13.45;;;;;;;-7.38;100.00;100508.48;1730773;82;21070;-57
2020/12/25 06:45:06;;;;;;;27.65;12.70;;;;;;;-7.35;100.00;100505.80;1720658;82;21163;-47
2020/12/25 06:47:37;;;;;;;22.70;10.80;;;;;;;-7.30;100.00;100508.98;1710643;82;21178;-48
2020/12/25 06:50:10;;;;;;;20.30;10.75;;;;;;;-7.25;100.00;100505.81;1726194;82;22457;-48
2020/12/25 06:52:56;;;;;;;24.12;11.93;;;;;;;-7.18;100.00;100518.60;1709657;82;21375;-48
2020/12/25 06:55:25;;;;;;;20.85;10.05;;;;;;;-7.13;100.00;100517.95;1727858;82;21199;-58
2020/12/25 06:57:54;;;;;;;23.18;10.78;;;;;;;-7.08;100.00;100521.59;1736626;82;21141;-59
2020/12/25 07:00:24;;;;;;;28.12;12.47;;;;;;;-7.07;100.00;100528.30;1729167;82;21601;-58
2020/12/25 07:02:52;;;;;;;27.05;12.50;;;;;;;-7.07;100.00;100518.16;1728688;82;21073;-58
2020/12/25 07:05:23;;;;;;;27.90;11.57;;;;;;;-7.05;100.00;100520.62;1727412;82;21778;-57
2020/12/25 07:07:53;;;;;;;25.23;12.18;;;;;;;-7.03;100.00;100516.32;1693810;83;21011;-58
2020/12/25 07:10:21;;;;;;;24.72;11.65;;;;;;;-7.00;100.00;100518.73;1722018;80;21161;-49
2020/12/25 07:12:49;;;;;;;27.73;12.33;;;;;;;-6.99;100.00;100518.66;1683805;83;21150;-58
2020/12/25 07:15:17;;;;;;;34.35;13.83;;;;;;;-6.97;100.00;100513.09;1670572;83;21556;-57
2020/12/25 07:17:45;;;;;;;34.38;14.80;;;;;;;-6.94;100.00;100515.47;1723595;82;21401;-57
2020/12/25 07:20:13;;;;;;;33.45;16.70;;;;;;;-6.87;100.00;100523.19;1691928;83;21190;-48
2020/12/25 07:22:42;;;;;;;27.62;12.03;;;;;;;-6.81;100.00;100528.46;1696997;83;21162;-48
2020/12/25 07:25:10;;;;;;;24.82;11.97;;;;;;;-6.77;100.00;100524.08;1702198;83;21154;-47
2020/12/25 07:27:38;;;;;;;30.17;12.75;;;;;;;-6.75;100.00;100526.09;1700091;83;21156;-48
2020/12/25 07:30:06;;;;;;;21.12;10.15;;;;;;;-6.72;100.00;100527.23;1686205;83;21371;-58
2020/12/25 07:32:34;;;;;;;20.37;10.53;;;;;;;-6.81;100.00;100525.11;1720192;82;21646;-48
2020/12/25 07:35:05;;;;;;;22.90;11.20;;;;;;;-6.81;100.00;100525.11;1694271;83;21195;-57
2020/12/25 07:37:33;;;;;;;;;;;;;;;-6.94;100.00;100530.67;1738281;82;20991;-58
2020/12/25 07:40:06;;;;;;;25.05;11.45;;;;;;;-7.08;100.00;100524.13;1726340;82;20225;-57
2020/12/25 07:42:34;;;;;;;21.40;10.35;;;;;;;-7.24;100.00;100511.24;1733645;82;21382;-48
2020/12/25 07:45:03;;;;;;;26.17;12.00;;;;;;;-7.33;100.00;100501.51;1663097;83;21207;-57
2020/12/25 07:47:31;;;;;;;23.73;11.68;;;;;;;-7.37;100.00;100507.59;1660392;83;21040;-48
2020/12/25 07:50:00;;;;;;;21.80;11.08;;;;;;;-7.41;100.00;100504.36;1715464;82;21185;-48
2020/12/25 07:52:28;;;;;;;25.05;11.90;;;;;;;-7.44;100.00;100499.41;1715026;80;21004;-48
2020/12/25 07:54:58;;;;;;;23.83;11.57;;;;;;;-7.49;100.00;100503.84;1715386;82;22401;-58
2020/12/25 07:57:27;;;;;;;22.15;10.55;;;;;;;-7.52;100.00;100513.27;1697881;83;21027;-57
2020/12/25 07:59:55;;;;;;;24.35;11.40;;;;;;;-7.53;100.00;100507.39;1725252;82;21240;-58
2020/12/25 08:02:23;;;;;;;19.25;8.93;;;;;;;-7.52;100.00;100524.67;1735543;82;21190;-58
2020/12/25 08:04:51;;;;;;;24.45;11.88;;;;;;;-7.50;100.00;100534.27;1709075;82;21139;-58
2020/12/25 08:07:19;;;;;;;24.30;10.85;;;;;;;-7.46;100.00;100533.27;1709608;82;21492;-58
2020/12/25 08:09:47;;;;;;;24.23;12.03;;;;;;;-7.43;100.00;100533.97;1716054;82;21147;-49
2020/12/25 08:12:16;;;;;;;25.30;9.90;;;;;;;-7.35;100.00;100514.25;1654913;85;21173;-58
2020/12/25 08:14:44;;;;;;;22.50;11.15;;;;;;;-7.23;100.00;100504.50;1693922;83;21181;-50
2020/12/25 08:17:12;;;;;;;25.65;12.33;;;;;;;-7.14;100.00;100496.50;1683357;83;21560;-49
2020/12/25 08:19:40;;;;;;;23.85;11.60;;;;;;;-7.10;100.00;100493.77;1708834;83;21415;-58
2020/12/25 08:22:09;;;;;;;23.57;11.73;;;;;;;-7.02;100.00;100492.62;1683790;83;21177;-50
2020/12/25 08:24:37;;;;;;;25.08;13.05;;;;;;;-6.97;100.00;100494.50;1702957;83;21184;-49
2020/12/25 08:27:06;;;;;;;20.48;11.35;;;;;;;-6.94;100.00;100480.44;1717821;82;21138;-58
2020/12/25 08:29:36;;;;;;;22.75;11.45;;;;;;;-6.93;100.00;100474.48;1732200;82;21141;-57
2020/12/25 08:32:08;;;;;;;25.97;12.28;;;;;;;-6.93;100.00;100475.33;1722176;82;21255;-48
2020/12/25 08:34:37;;;;;;;21.05;10.82;;;;;;;-6.92;100.00;100476.14;1702770;83;20983;-59
2020/12/25 08:37:07;;;;;;;23.30;11.10;;;;;;;-6.90;100.00;100471.81;1728791;82;21193;-58
2020/12/25 08:39:35;;;;;;;27.32;14.05;;;;;;;-6.87;100.00;100461.55;1721808;80;21069;-59
2020/12/25 08:42:03;;;;;;;27.90;12.65;;;;;;;-6.84;100.00;100456.36;1720116;82;21264;-58
2020/12/25 08:44:32;;;;;;;22.93;12.37;;;;;;;-6.79;100.00;100446.83;1737043;82;21209;-48
2020/12/25 08:47:10;;;;;;;36.93;18.35;;;;;;;-6.78;100.00;100433.28;1686547;83;20992;-58
2020/12/25 08:49:39;;;;;;;32.88;14.07;;;;;;;-6.78;100.00;100433.28;1683339;83;21181;-49
2020/12/25 08:52:22;;;;;;;22.45;10.55;;;;;;;-6.77;100.00;100420.98;1732497;80;21157;-57
2020/12/25 08:54:59;;;;;;;22.98;10.88;;;;;;;-6.77;100.00;100422.25;1710184;82;21552;-58
2020/12/25 09:00:10;;;;;;;26.17;12.13;;;;;;;-6.79;100.00;100406.27;1812653;76;22834;-48
2020/12/25 09:02:39;;;;;;;26.48;11.78;;;;;;;-6.81;100.00;100403.00;1769865;80;21006;-47
2020/12/25 09:05:08;;;;;;;26.57;12.65;;;;;;;-6.81;100.00;100403.00;1774371;80;21194;-49
2020/12/25 09:07:36;;;;;;;25.95;13.88;;;;;;;-6.83;100.00;100398.88;1783818;80;20962;-49
2020/12/25 09:10:04;;;;;;;25.72;12.45;;;;;;;-6.82;100.00;100397.98;1778438;80;21022;-49
2020/12/25 09:12:32;;;;;;;26.35;14.10;;;;;;;-6.79;100.00;100396.14;1773956;79;20949;-58
2020/12/25 09:15:00;;;;;;;28.85;14.95;;;;;;;-6.75;100.00;100395.10;1782146;79;21021;-50
2020/12/25 09:17:29;;;;;;;26.37;11.93;;;;;;;-6.71;100.00;100386.91;1761232;80;21297;-50
2020/12/25 09:19:57;;;;;;;27.07;13.40;;;;;;;-6.68;100.00;100386.78;1778709;79;20975;-48
2020/12/25 09:22:25;;;;;;;25.17;13.62;;;;;;;-6.67;100.00;100377.83;1770361;80;21041;-48
2020/12/25 09:24:53;;;;;;;24.50;12.05;;;;;;;-6.63;100.00;100375.55;1771898;79;20972;-48
2020/12/25 09:27:21;;;;;;;18.37;10.10;;;;;;;-6.55;100.00;100361.67;1769542;80;21148;-48
2020/12/25 09:29:49;;;;;;;24.23;12.25;;;;;;;-6.55;100.00;100361.67;1771661;80;21379;-59
2020/12/25 09:32:18;;;;;;;28.35;12.63;;;;;;;-6.49;100.00;100350.80;1768948;80;21050;-49
2020/12/25 09:34:46;;;;;;;24.00;12.00;;;;;;;-6.49;100.00;100350.80;1770003;79;20968;-48
2020/12/25 09:37:14;;;;;;;24.50;12.68;;;;;;;-6.46;100.00;100337.98;1733693;82;21064;-58
2020/12/25 09:39:44;;;;;;;23.77;12.53;;;;;;;-6.42;100.00;100332.33;1775080;79;20983;-57
2020/12/25 09:42:12;;;;;;;24.27;10.80;;;;;;;-6.35;100.00;100328.60;1739843;80;21384;-50
2020/12/25 09:44:40;;;;;;;24.23;11.45;;;;;;;-6.29;100.00;100329.56;1770391;80;20998;-58
2020/12/25 09:47:09;;;;;;;24.12;11.35;;;;;;;-6.26;100.00;100318.00;1774691;80;21022;-48
2020/12/25 09:49:37;;;;;;;22.15;10.85;;;;;;;-6.16;100.00;100323.01;1755574;80;21147;-49
2020/12/25 09:52:06;;;;;;;21.52;12.65;;;;;;;-6.08;100.00;100323.91;1779522;79;21081;-49
2020/12/25 09:54:34;;;;;;;23.83;11.65;;;;;;;-6.03;100.00;100322.40;1759685;80;21193;-49
2020/12/25 09:57:02;;;;;;;23.80;12.80;;;;;;;-5.98;100.00;100313.68;1774499;80;20984;-50
2020/12/25 09:59:30;;;;;;;22.58;12.47;;;;;;;-5.92;100.00;100312.53;1756641;79;20982;-49
2020/12/25 10:01:59;;;;;;;25.62;12.43;;;;;;;-5.86;100.00;100290.63;1778557;80;21005;-57
2020/12/25 10:04:27;;;;;;;22.32;11.50;;;;;;;-5.80;100.00;100286.95;1763119;79;20927;-49
2020/12/25 10:06:58;;;;;;;19.20;9.60;;;;;;;-5.74;100.00;100282.84;1765831;80;21192;-49
2020/12/25 10:09:26;;;;;;;;;;;;;;;-5.71;100.00;100275.07;1770322;80;21026;-49
2020/12/25 10:11:55;;;;;;;17.00;9.28;;;;;;;-5.68;100.00;100260.50;1770563;80;20238;-49
2020/12/25 10:14:23;;;;;;;19.30;10.70;;;;;;;-5.65;100.00;100267.94;1772086;80;21002;-57
2020/12/25 10:16:51;;;;;;;19.50;10.03;;;;;;;-5.64;100.00;100258.63;1757261;79;21170;-49
2020/12/25 10:19:19;;;;;;;18.75;11.12;;;;;;;-5.62;100.00;100253.81;1745140;80;21149;-47
2020/12/25 10:21:50;;;;;;;19.48;10.13;;;;;;;-5.60;100.00;100244.87;1732976;82;21081;-48
2020/12/25 10:24:18;;;;;;;22.22;11.95;;;;;;;-5.54;100.00;100241.17;1779356;80;21527;-49
2020/12/25 10:26:49;;;;;;;21.97;11.63;;;;;;;-5.49;100.00;100231.58;1765409;80;21139;-47
2020/12/25 10:29:17;;;;;;;;;;;;;;;-5.45;100.00;100226.28;1769362;80;21121;-48
2020/12/25 10:31:50;;;;;;;22.80;12.73;;;;;;;-5.42;100.00;100212.58;1775337;80;21211;-49
2020/12/25 10:34:19;;;;;;;27.45;13.88;;;;;;;-5.37;100.00;100215.70;1755306;79;21129;-57
2020/12/25 10:36:48;;;;;;;20.60;11.95;;;;;;;-5.31;100.00;100214.09;1775160;80;21082;-59
2020/12/25 10:39:16;;;;;;;18.48;10.72;;;;;;;-5.22;100.00;100203.90;1766342;80;20951;-49
2020/12/25 10:41:44;;;;;;;27.00;13.78;;;;;;;-5.14;100.00;100193.67;1757699;80;21022;-57
2020/12/25 10:44:13;;;;;;;25.02;12.50;;;;;;;-5.04;100.00;100191.42;1775086;79;21834;-58
2020/12/25 10:46:41;;;;;;;18.02;10.85;;;;;;;-4.93;100.00;100192.92;1781775;80;21037;-49
2020/12/25 10:49:09;;;;;;;24.40;12.60;;;;;;;-4.78;100.00;100196.78;1775001;80;21020;-57
2020/12/25 10:51:37;;;;;;;24.15;12.45;;;;;;;-4.67;100.00;100185.55;1732954;80;20948;-48
2020/12/25 10:54:05;;;;;;;20.82;11.30;;;;;;;-4.52;100.00;100186.40;1775077;79;20958;-49
2020/12/25 10:56:34;;;;;;;16.50;9.30;;;;;;;-4.37;100.00;100175.33;1782190;80;21416;-58
2020/12/25 10:59:04;;;;;;;21.82;11.60;;;;;;;-4.23;100.00;100174.53;1768230;80;20990;-59
2020/12/25 11:01:33;;;;;;;20.17;10.15;;;;;;;-4.11;100.00;100178.08;1733143;80;20964;-49
2020/12/25 11:04:01;;;;;;;20.30;11.63;;;;;;;-3.99;100.00;100170.52;1772131;80;21132;-50
2020/12/25 11:06:35;;;;;;;19.52;11.28;;;;;;;-3.84;100.00;100171.31;1783217;80;21621;-59
2020/12/25 11:09:05;;;;;;;19.07;11.88;;;;;;;-3.69;100.00;100172.11;1762110;80;21192;-60
2020/12/25 11:11:40;;;;;;;17.10;9.65;;;;;;;-3.54;100.00;100164.80;1749111;81;21036;-59
2020/12/25 11:14:09;;;;;;;16.70;9.70;;;;;;;-3.43;100.00;100162.41;1721509;82;20983;-59
2020/12/25 11:16:37;;;;;;;18.62;10.48;;;;;;;-3.32;100.00;100155.83;1725970;82;21056;-58